createdAt,value
2022-12-09T00:00:01.294Z,3.20
2022-12-09T00:01:01.304Z,2.90
2022-12-09T00:02:01.373Z,2.80
2022-12-09T00:03:01.381Z,2.70
2022-12-09T00:04:01.444Z,3.00
2022-12-09T00:05:01.427Z,2.80
2022-12-09T00:06:01.357Z,2.70
2022-12-09T00:07:01.324Z,3.30
2022-12-09T00:08:01.202Z,3.10
2022-12-09T00:09:01.311Z,2.90
2022-12-09T00:10:01.145Z,3.40
2022-12-09T00:11:01.228Z,3.40
2022-12-09T00:12:01.300Z,3.20
2022-12-09T00:13:01.141Z,2.70
2022-12-09T00:14:01.179Z,3.30
2022-12-09T00:15:01.078Z,3.20
2022-12-09T00:16:01.241Z,3.30
2022-12-09T00:17:01.112Z,3.60
2022-12-09T00:18:01.052Z,3.40
2022-12-09T00:19:01.076Z,3.00
2022-12-09T00:20:01.141Z,3.30
2022-12-09T00:21:01.009Z,3.30
2022-12-09T00:22:01.115Z,3.80
2022-12-09T00:23:00.992Z,3.30
2022-12-09T00:24:01.121Z,3.40
2022-12-09T00:25:00.982Z,3.30
2022-12-09T00:26:00.968Z,3.30
2022-12-09T00:27:00.970Z,3.80
2022-12-09T00:28:01.129Z,3.30
2022-12-09T00:29:01.054Z,3.30
2022-12-09T00:30:00.944Z,3.10
2022-12-09T00:31:01.016Z,3.60
2022-12-09T00:32:00.944Z,4.10
2022-12-09T00:33:01.086Z,4.60
2022-12-09T00:34:00.892Z,10.00
2022-12-09T00:35:00.994Z,8.70
2022-12-09T00:36:00.866Z,7.60
2022-12-09T00:37:00.841Z,7.00
2022-12-09T00:38:00.834Z,5.90
2022-12-09T00:39:00.963Z,5.10
2022-12-09T00:40:01.023Z,3.90
2022-12-09T00:41:00.971Z,4.00
2022-12-09T00:42:00.977Z,3.20
2022-12-09T00:43:00.779Z,3.60
2022-12-09T00:44:00.768Z,3.20
2022-12-09T00:45:00.841Z,3.60
2022-12-09T00:46:00.865Z,3.60
2022-12-09T00:47:00.837Z,3.70
2022-12-09T00:48:00.982Z,3.70
2022-12-09T00:49:00.735Z,4.00
2022-12-09T00:50:00.928Z,3.40
2022-12-09T00:51:00.807Z,3.90
2022-12-09T00:52:00.680Z,3.50
2022-12-09T00:53:00.728Z,3.70
2022-12-09T00:54:00.780Z,4.20
2022-12-09T00:55:01.045Z,3.30
2022-12-09T00:56:00.784Z,3.40
2022-12-09T00:57:00.652Z,3.40
2022-12-09T00:58:00.675Z,3.40
2022-12-09T00:59:00.783Z,3.90
2022-12-09T01:00:00.842Z,3.60
2022-12-09T01:01:00.833Z,3.30
2022-12-09T01:02:00.854Z,3.40
2022-12-09T01:03:00.714Z,3.90
2022-12-09T01:04:00.999Z,3.30
2022-12-09T01:05:00.847Z,3.40
2022-12-09T01:06:00.715Z,3.30
2022-12-09T01:07:00.518Z,2.70
2022-12-09T01:08:00.592Z,3.20
2022-12-09T01:09:00.735Z,3.20
2022-12-09T01:10:00.547Z,3.20
2022-12-09T01:11:00.625Z,3.50
2022-12-09T01:12:00.467Z,3.20
2022-12-09T01:13:00.714Z,2.60
2022-12-09T01:14:00.551Z,3.50
2022-12-09T01:15:00.450Z,2.80
2022-12-09T01:16:00.682Z,3.00
2022-12-09T01:17:00.719Z,3.30
2022-12-09T01:18:00.639Z,3.10
2022-12-09T01:19:00.422Z,3.10
2022-12-09T01:20:00.443Z,3.00
2022-12-09T01:21:00.467Z,3.30
2022-12-09T01:22:00.588Z,3.20
2022-12-09T01:23:00.607Z,3.30
2022-12-09T01:24:00.370Z,3.50
2022-12-09T01:25:00.333Z,3.20
2022-12-09T01:26:00.540Z,3.20
2022-12-09T01:27:00.367Z,3.10
2022-12-09T01:28:00.419Z,2.90
2022-12-09T01:29:00.427Z,3.50
2022-12-09T01:30:00.646Z,3.10
2022-12-09T01:31:00.579Z,2.80
2022-12-09T01:32:00.330Z,3.10
2022-12-09T01:33:00.385Z,3.20
2022-12-09T01:34:00.502Z,3.40
2022-12-09T01:35:00.491Z,3.20
2022-12-09T01:36:00.229Z,2.80
2022-12-09T01:37:00.188Z,2.50
2022-12-09T01:38:00.490Z,3.10
2022-12-09T01:39:00.306Z,2.80
2022-12-09T01:40:00.228Z,2.70
2022-12-09T01:41:00.161Z,2.90
2022-12-09T01:42:00.395Z,3.30
2022-12-09T01:43:00.262Z,2.90
2022-12-09T01:44:00.155Z,3.00
2022-12-09T01:45:00.347Z,3.10
2022-12-09T01:46:00.430Z,3.10
2022-12-09T01:47:00.197Z,3.10
2022-12-09T01:48:00.270Z,2.60
2022-12-09T01:49:00.272Z,2.70
2022-12-09T01:50:00.205Z,2.90
2022-12-09T01:51:00.086Z,3.00
2022-12-09T01:52:00.352Z,3.10
2022-12-09T01:53:00.030Z,3.60
2022-12-09T01:54:00.021Z,3.20
2022-12-09T01:55:00.075Z,3.40
2022-12-09T01:56:00.179Z,3.60
2022-12-09T01:56:59.986Z,3.20
2022-12-09T01:58:00.170Z,3.30
2022-12-09T01:58:59.971Z,3.30
2022-12-09T02:00:00.271Z,3.60
2022-12-09T02:00:59.982Z,3.40
2022-12-09T02:02:00.095Z,3.70
2022-12-09T02:03:00.051Z,3.50
2022-12-09T02:04:00.118Z,3.80
2022-12-09T02:05:00.024Z,3.90
2022-12-09T02:05:59.879Z,3.50
2022-12-09T02:07:00.144Z,3.90
2022-12-09T02:08:00.120Z,3.70
2022-12-09T02:08:59.938Z,3.90
2022-12-09T02:09:59.975Z,3.90
2022-12-09T02:10:59.822Z,3.90
2022-12-09T02:12:00.070Z,3.70
2022-12-09T02:12:59.925Z,3.90
2022-12-09T02:13:59.837Z,3.50
2022-12-09T02:14:59.776Z,3.60
2022-12-09T02:15:59.858Z,4.20
2022-12-09T02:16:59.861Z,4.00
2022-12-09T02:17:59.752Z,3.90
2022-12-09T02:18:59.791Z,4.40
2022-12-09T02:20:00.000Z,4.40
2022-12-09T02:20:59.892Z,3.70
2022-12-09T02:22:00.051Z,3.60
2022-12-09T02:22:59.965Z,4.10
2022-12-09T02:23:59.701Z,4.30
2022-12-09T02:25:00.070Z,4.40
2022-12-09T02:25:59.787Z,4.20
2022-12-09T02:26:59.837Z,4.50
2022-12-09T02:27:59.837Z,4.30
2022-12-09T02:28:59.726Z,5.60
2022-12-09T02:29:59.666Z,5.40
2022-12-09T02:31:00.014Z,5.90
2022-12-09T02:31:59.710Z,5.00
2022-12-09T02:33:00.080Z,6.00
2022-12-09T02:33:59.573Z,5.70
2022-12-09T02:34:59.654Z,6.10
2022-12-09T02:35:59.802Z,5.80
2022-12-09T02:36:59.639Z,5.90
2022-12-09T02:37:59.579Z,5.90
2022-12-09T02:38:59.550Z,5.60
2022-12-09T02:39:59.535Z,6.10
2022-12-09T02:40:59.518Z,6.00
2022-12-09T02:41:59.553Z,6.80
2022-12-09T02:42:59.584Z,6.00
2022-12-09T02:43:59.743Z,7.00
2022-12-09T02:44:59.524Z,6.20
2022-12-09T02:45:59.780Z,6.20
2022-12-09T02:46:59.764Z,5.60
2022-12-09T02:47:59.600Z,6.40
2022-12-09T02:48:59.495Z,6.30
2022-12-09T02:49:59.434Z,6.20
2022-12-09T02:50:59.440Z,6.00
2022-12-09T02:51:59.419Z,6.30
2022-12-09T02:52:59.513Z,6.30
2022-12-09T02:53:59.673Z,5.50
2022-12-09T02:54:59.342Z,6.10
2022-12-09T02:55:59.350Z,6.00
2022-12-09T02:56:59.650Z,6.30
2022-12-09T02:57:59.312Z,6.10
2022-12-09T02:58:59.305Z,6.50
2022-12-09T02:59:59.406Z,7.00
2022-12-09T03:00:59.316Z,7.80
2022-12-09T03:01:59.437Z,7.00
2022-12-09T03:02:59.705Z,7.00
2022-12-09T03:03:59.528Z,7.30
2022-12-09T03:04:59.271Z,6.90
2022-12-09T03:05:59.556Z,6.60
2022-12-09T03:06:59.381Z,6.40
2022-12-09T03:07:59.633Z,6.40
2022-12-09T03:08:59.288Z,6.00
2022-12-09T03:09:59.233Z,5.70
2022-12-09T03:10:59.288Z,5.20
2022-12-09T03:11:59.509Z,5.50
2022-12-09T03:12:59.185Z,5.70
2022-12-09T03:13:59.403Z,5.10
2022-12-09T03:14:59.131Z,5.20
2022-12-09T03:15:59.367Z,5.40
2022-12-09T03:16:59.506Z,4.90
2022-12-09T03:17:59.257Z,5.40
2022-12-09T03:18:59.084Z,5.00
2022-12-09T03:19:59.079Z,5.50
2022-12-09T03:20:59.062Z,5.10
2022-12-09T03:21:59.228Z,5.70
2022-12-09T03:22:59.079Z,5.50
2022-12-09T03:23:59.146Z,5.60
2022-12-09T03:24:59.364Z,5.60
2022-12-09T03:25:59.083Z,6.00
2022-12-09T03:26:59.245Z,5.90
2022-12-09T03:27:59.034Z,5.90
2022-12-09T03:28:59.170Z,5.90
2022-12-09T03:29:59.302Z,5.90
2022-12-09T03:30:59.053Z,5.80
2022-12-09T03:31:59.463Z,5.30
2022-12-09T03:32:59.012Z,5.40
2022-12-09T03:33:58.950Z,5.70
2022-12-09T03:34:59.228Z,5.20
2022-12-09T03:35:59.175Z,5.80
2022-12-09T03:36:58.915Z,6.00
2022-12-09T03:37:59.260Z,5.50
2022-12-09T03:38:58.974Z,5.70
2022-12-09T03:39:59.191Z,5.90
2022-12-09T03:40:58.874Z,5.80
2022-12-09T03:41:59.052Z,6.00
2022-12-09T03:42:58.949Z,5.60
2022-12-09T03:43:59.215Z,6.50
2022-12-09T03:44:59.079Z,5.50
2022-12-09T03:45:59.152Z,6.20
2022-12-09T03:46:58.951Z,6.70
2022-12-09T03:47:58.851Z,6.10
2022-12-09T03:48:58.761Z,6.40
2022-12-09T03:49:58.822Z,6.80
2022-12-09T03:50:58.941Z,6.30
2022-12-09T03:51:58.727Z,6.80
2022-12-09T03:53:05.814Z,7.10
2022-12-09T03:53:58.826Z,7.80
2022-12-09T03:54:58.901Z,6.90
2022-12-09T03:55:58.680Z,8.50
2022-12-09T03:56:58.715Z,7.70
2022-12-09T03:57:58.805Z,8.10
2022-12-09T03:58:58.990Z,8.00
2022-12-09T03:59:58.714Z,8.90
2022-12-09T04:00:58.692Z,8.70
2022-12-09T04:01:59.062Z,9.10
2022-12-09T04:02:58.793Z,9.30
2022-12-09T04:03:58.826Z,9.00
2022-12-09T04:04:58.739Z,9.00
2022-12-09T04:05:58.585Z,8.70
2022-12-09T04:06:58.750Z,10.10
2022-12-09T04:07:58.801Z,10.60
2022-12-09T04:09:02.412Z,10.30
2022-12-09T04:09:58.530Z,10.20
2022-12-09T04:10:58.550Z,10.50
2022-12-09T04:11:58.614Z,10.50
2022-12-09T04:12:58.543Z,10.20
2022-12-09T04:13:58.570Z,10.70
2022-12-09T04:14:58.679Z,11.30
2022-12-09T04:15:58.675Z,10.40
2022-12-09T04:16:58.516Z,10.00
2022-12-09T04:17:58.656Z,11.00
2022-12-09T04:18:58.561Z,10.40
2022-12-09T04:19:58.459Z,10.60
2022-12-09T04:20:58.432Z,11.10
2022-12-09T04:21:58.407Z,12.10
2022-12-09T04:22:58.614Z,11.80
2022-12-09T04:23:58.414Z,12.30
2022-12-09T04:24:58.535Z,13.10
2022-12-09T04:25:58.528Z,12.80
2022-12-09T04:26:58.679Z,13.20
2022-12-09T04:27:58.417Z,12.30
2022-12-09T04:28:58.633Z,12.50
2022-12-09T04:29:58.323Z,12.30
2022-12-09T04:30:58.767Z,11.50
2022-12-09T04:31:58.814Z,12.40
2022-12-09T04:32:58.581Z,11.70
2022-12-09T04:34:01.542Z,11.70
2022-12-09T04:34:59.379Z,13.40
2022-12-09T04:35:58.563Z,12.50
2022-12-09T04:36:58.248Z,10.90
2022-12-09T04:37:58.248Z,12.20
2022-12-09T04:38:58.377Z,11.90
2022-12-09T04:39:58.566Z,11.60
2022-12-09T04:40:58.224Z,11.70
2022-12-09T04:41:58.518Z,11.10
2022-12-09T04:42:58.173Z,11.30
2022-12-09T04:43:58.569Z,11.30
2022-12-09T04:44:58.154Z,11.10
2022-12-09T04:45:58.173Z,10.50
2022-12-09T04:46:58.551Z,11.40
2022-12-09T04:47:58.370Z,11.20
2022-12-09T04:48:58.322Z,11.20
2022-12-09T04:49:58.371Z,11.50
2022-12-09T04:50:58.426Z,11.80
2022-12-09T04:51:58.195Z,11.40
2022-12-09T04:52:58.066Z,11.00
2022-12-09T04:53:58.071Z,10.80
2022-12-09T04:54:58.050Z,10.90
2022-12-09T04:55:58.036Z,10.80
2022-12-09T04:56:58.360Z,11.20
2022-12-09T04:57:58.023Z,11.10
2022-12-09T04:58:58.086Z,11.30
2022-12-09T04:59:58.047Z,11.30
2022-12-09T05:00:58.160Z,11.30
2022-12-09T05:01:58.101Z,11.50
2022-12-09T05:02:58.187Z,11.10
2022-12-09T05:03:58.471Z,12.00
2022-12-09T05:04:58.267Z,11.80
2022-12-09T05:05:58.037Z,11.70
2022-12-09T05:06:58.118Z,12.20
2022-12-09T05:07:58.120Z,12.10
2022-12-09T05:08:58.050Z,12.90
2022-12-09T05:09:58.040Z,12.10
2022-12-09T05:10:58.103Z,12.30
2022-12-09T05:11:58.148Z,12.70
2022-12-09T05:12:57.870Z,12.60
2022-12-09T05:13:57.932Z,12.50
2022-12-09T05:14:57.917Z,13.60
2022-12-09T05:15:57.898Z,16.00
2022-12-09T05:16:58.160Z,16.00
2022-12-09T05:17:58.153Z,17.60
2022-12-09T05:18:57.960Z,18.10
2022-12-09T05:19:58.110Z,16.80
2022-12-09T05:20:57.901Z,18.20
2022-12-09T05:21:58.137Z,18.20
2022-12-09T05:22:57.815Z,17.70
2022-12-09T05:23:58.171Z,17.40
2022-12-09T05:24:57.801Z,17.50
2022-12-09T05:25:57.787Z,16.40
2022-12-09T05:26:57.716Z,17.30
2022-12-09T05:27:57.929Z,15.60
2022-12-09T05:28:57.908Z,15.70
2022-12-09T05:29:57.734Z,15.90
2022-12-09T05:30:57.802Z,16.90
2022-12-09T05:31:58.118Z,17.30
2022-12-09T05:32:57.759Z,15.80
2022-12-09T05:33:57.830Z,17.30
2022-12-09T05:34:57.971Z,15.60
2022-12-09T05:35:57.902Z,15.90
2022-12-09T05:36:57.855Z,16.80
2022-12-09T05:37:57.838Z,16.60
2022-12-09T05:38:57.942Z,16.90
2022-12-09T05:39:57.612Z,16.40
2022-12-09T05:40:57.939Z,17.40
2022-12-09T05:41:57.713Z,16.70
2022-12-09T05:42:57.883Z,17.00
2022-12-09T05:43:57.809Z,16.40
2022-12-09T05:44:57.577Z,16.10
2022-12-09T05:45:57.581Z,18.00
2022-12-09T05:46:57.594Z,18.90
2022-12-09T05:47:57.742Z,16.70
2022-12-09T05:48:57.697Z,16.80
2022-12-09T05:50:00.258Z,15.70
2022-12-09T05:50:58.838Z,17.20
2022-12-09T05:51:57.517Z,18.80
2022-12-09T05:52:57.495Z,17.40
2022-12-09T05:53:57.639Z,19.10
2022-12-09T05:54:57.570Z,17.50
2022-12-09T05:55:57.553Z,16.60
2022-12-09T05:56:57.614Z,16.50
2022-12-09T05:57:57.471Z,17.90
2022-12-09T05:58:57.777Z,18.50
2022-12-09T05:59:57.408Z,19.00
2022-12-09T06:00:57.451Z,19.70
2022-12-09T06:01:57.371Z,17.80
2022-12-09T06:02:57.733Z,19.60
2022-12-09T06:03:57.890Z,18.10
2022-12-09T06:04:57.844Z,19.00
2022-12-09T06:05:57.821Z,17.70
2022-12-09T06:06:57.914Z,20.20
2022-12-09T06:08:01.086Z,18.40
2022-12-09T06:08:58.706Z,19.70
2022-12-09T06:09:57.481Z,18.70
2022-12-09T06:10:57.502Z,17.30
2022-12-09T06:11:57.563Z,17.50
2022-12-09T06:12:57.253Z,20.50
2022-12-09T06:13:57.676Z,20.40
2022-12-09T06:14:57.276Z,19.00
2022-12-09T06:15:57.488Z,20.00
2022-12-09T06:16:57.304Z,21.00
2022-12-09T06:17:57.407Z,19.10
2022-12-09T06:18:57.604Z,19.80
2022-12-09T06:19:57.179Z,19.80
2022-12-09T06:20:57.325Z,19.30
2022-12-09T06:21:57.268Z,18.80
2022-12-09T06:22:57.114Z,19.60
2022-12-09T06:23:57.438Z,20.10
2022-12-09T06:24:57.442Z,18.30
2022-12-09T06:25:57.239Z,19.70
2022-12-09T06:26:57.411Z,18.50
2022-12-09T06:27:57.375Z,17.70
2022-12-09T06:28:57.496Z,17.60
2022-12-09T06:29:57.097Z,19.50
2022-12-09T06:30:57.274Z,18.60
2022-12-09T06:31:57.239Z,17.00
2022-12-09T06:32:57.130Z,17.60
2022-12-09T06:33:58.570Z,18.60
2022-12-09T06:34:57.394Z,17.60
2022-12-09T06:35:57.248Z,16.00
2022-12-09T06:36:57.224Z,14.90
2022-12-09T06:37:56.983Z,16.90
2022-12-09T06:38:57.557Z,16.60
2022-12-09T06:39:57.175Z,16.90
2022-12-09T06:40:57.109Z,15.60
2022-12-09T06:41:57.181Z,15.00
2022-12-09T06:42:57.117Z,15.40
2022-12-09T06:43:57.154Z,15.50
2022-12-09T06:44:56.963Z,16.00
2022-12-09T06:45:57.110Z,14.60
2022-12-09T06:46:57.075Z,16.50
2022-12-09T06:47:57.307Z,15.50
2022-12-09T06:48:57.071Z,16.90
2022-12-09T06:50:01.170Z,18.00
2022-12-09T06:50:58.070Z,16.10
2022-12-09T06:51:56.945Z,17.20
2022-12-09T06:52:56.812Z,15.70
2022-12-09T06:53:56.802Z,16.90
2022-12-09T06:54:56.913Z,16.20
2022-12-09T06:55:56.735Z,16.50
2022-12-09T06:56:57.034Z,16.70
2022-12-09T06:57:56.923Z,17.50
2022-12-09T06:58:56.792Z,19.10
2022-12-09T06:59:56.826Z,16.60
2022-12-09T07:00:57.194Z,16.30
2022-12-09T07:01:57.007Z,17.60
2022-12-09T07:02:57.345Z,17.70
2022-12-09T07:03:57.165Z,19.80
2022-12-09T07:04:57.296Z,18.00
2022-12-09T07:05:56.921Z,18.50
2022-12-09T07:06:56.751Z,22.50
2022-12-09T07:07:56.846Z,25.30
2022-12-09T07:08:57.150Z,21.60
2022-12-09T07:09:57.099Z,23.20
2022-12-09T07:10:57.346Z,22.10
2022-12-09T07:11:56.991Z,21.50
2022-12-09T07:12:56.843Z,19.80
2022-12-09T07:13:56.917Z,20.10
2022-12-09T07:14:56.944Z,18.40
2022-12-09T07:15:56.914Z,18.40
2022-12-09T07:16:56.655Z,18.10
2022-12-09T07:17:57.081Z,17.00
2022-12-09T07:18:56.597Z,18.30
2022-12-09T07:20:00.132Z,18.30
2022-12-09T07:20:57.548Z,18.10
2022-12-09T07:21:56.576Z,18.20
2022-12-09T07:22:56.812Z,17.50
2022-12-09T07:23:56.593Z,18.10
2022-12-09T07:24:56.619Z,17.90
2022-12-09T07:25:56.544Z,18.70
2022-12-09T07:26:56.832Z,17.90
2022-12-09T07:27:56.443Z,19.10
2022-12-09T07:28:56.681Z,18.30
2022-12-09T07:29:56.612Z,18.50
2022-12-09T07:30:56.864Z,18.30
2022-12-09T07:31:56.479Z,18.90
2022-12-09T07:32:56.761Z,17.80
2022-12-09T07:33:56.601Z,18.50
2022-12-09T07:34:56.549Z,17.70
2022-12-09T07:35:56.358Z,18.80
2022-12-09T07:36:56.691Z,17.90
2022-12-09T07:37:56.558Z,17.60
2022-12-09T07:38:56.521Z,18.20
2022-12-09T07:39:56.467Z,18.00
2022-12-09T07:40:56.661Z,18.00
2022-12-09T07:41:56.332Z,18.30
2022-12-09T07:42:59.288Z,19.30
2022-12-09T07:43:56.604Z,19.50
2022-12-09T07:44:56.432Z,19.20
2022-12-09T07:45:56.642Z,18.20
2022-12-09T07:46:56.621Z,19.00
2022-12-09T07:47:56.806Z,17.90
2022-12-09T07:48:56.428Z,16.90
2022-12-09T07:49:58.954Z,17.80
2022-12-09T07:50:57.656Z,17.40
2022-12-09T07:51:56.186Z,18.50
2022-12-09T07:52:56.156Z,17.60
2022-12-09T07:53:56.399Z,17.90
2022-12-09T07:54:56.410Z,18.10
2022-12-09T07:55:56.503Z,17.20
2022-12-09T07:56:56.073Z,16.30
2022-12-09T07:57:56.464Z,16.50
2022-12-09T07:58:56.111Z,16.50
2022-12-09T07:59:56.298Z,15.40
2022-12-09T08:00:56.491Z,16.30
2022-12-09T08:01:59.802Z,18.00
2022-12-09T08:02:57.160Z,15.00
2022-12-09T08:03:56.596Z,16.50
2022-12-09T08:04:56.177Z,17.00
2022-12-09T08:05:56.589Z,16.60
2022-12-09T08:06:56.265Z,19.20
2022-12-09T08:07:56.536Z,18.20
2022-12-09T08:08:56.143Z,20.50
2022-12-09T08:09:56.411Z,22.60
2022-12-09T08:10:56.359Z,23.00
2022-12-09T08:11:56.111Z,22.00
2022-12-09T08:12:56.073Z,20.10
2022-12-09T08:13:55.910Z,24.30
2022-12-09T08:14:56.037Z,21.20
2022-12-09T08:15:55.926Z,21.80
2022-12-09T08:16:56.328Z,25.50
2022-12-09T08:17:56.023Z,27.40
2022-12-09T08:18:56.377Z,21.80
2022-12-09T08:19:56.019Z,21.50
2022-12-09T08:20:56.083Z,19.20
2022-12-09T08:21:56.202Z,18.00
2022-12-09T08:22:56.275Z,19.70
2022-12-09T08:23:56.145Z,17.90
2022-12-09T08:24:55.856Z,18.20
2022-12-09T08:25:55.866Z,20.00
2022-12-09T08:26:55.862Z,18.70
2022-12-09T08:27:55.803Z,20.30
2022-12-09T08:28:56.006Z,19.10
2022-12-09T08:29:55.915Z,17.90
2022-12-09T08:30:55.800Z,19.90
2022-12-09T08:31:56.050Z,23.00
2022-12-09T08:32:55.852Z,19.50
2022-12-09T08:33:55.872Z,20.10
2022-12-09T08:34:55.942Z,19.30
2022-12-09T08:35:55.904Z,19.90
2022-12-09T08:37:01.638Z,20.20
2022-12-09T08:37:57.060Z,18.20
2022-12-09T08:38:56.112Z,19.40
2022-12-09T08:39:55.952Z,22.40
2022-12-09T08:40:56.008Z,23.20
2022-12-09T08:41:55.764Z,21.60
2022-12-09T08:42:55.649Z,23.40
2022-12-09T08:43:55.810Z,19.20
2022-12-09T08:45:01.620Z,20.80
2022-12-09T08:45:56.768Z,20.30
2022-12-09T08:46:56.051Z,20.30
2022-12-09T08:47:55.643Z,19.80
2022-12-09T08:48:55.709Z,19.50
2022-12-09T08:49:55.788Z,18.60
2022-12-09T08:50:55.537Z,18.40
2022-12-09T08:51:55.521Z,21.60
2022-12-09T08:52:55.510Z,21.80
2022-12-09T08:53:55.887Z,21.20
2022-12-09T08:54:55.610Z,20.60
2022-12-09T08:55:55.869Z,22.40
2022-12-09T08:56:56.126Z,24.80
2022-12-09T08:57:55.488Z,26.70
2022-12-09T08:58:55.584Z,24.40
2022-12-09T08:59:55.763Z,24.90
2022-12-09T09:00:55.914Z,25.10
2022-12-09T09:01:55.604Z,22.70
2022-12-09T09:02:55.686Z,23.40
2022-12-09T09:03:55.686Z,21.80
2022-12-09T09:04:55.707Z,21.50
2022-12-09T09:05:55.462Z,21.20
2022-12-09T09:06:55.555Z,20.70
2022-12-09T09:07:55.876Z,20.60
2022-12-09T09:08:55.697Z,20.10
2022-12-09T09:09:55.784Z,20.70
2022-12-09T09:10:55.909Z,20.80
2022-12-09T09:11:55.406Z,21.20
2022-12-09T09:12:55.547Z,23.10
2022-12-09T09:13:55.421Z,24.70
2022-12-09T09:14:55.545Z,27.70
2022-12-09T09:15:55.622Z,23.60
2022-12-09T09:16:55.425Z,23.10
2022-12-09T09:17:55.804Z,23.90
2022-12-09T09:18:55.357Z,24.30
2022-12-09T09:19:55.359Z,26.00
2022-12-09T09:20:55.603Z,32.50
2022-12-09T09:21:55.365Z,28.80
2022-12-09T09:23:01.125Z,26.40
2022-12-09T09:23:56.423Z,26.00
2022-12-09T09:24:55.557Z,25.30
2022-12-09T09:25:55.552Z,24.70
2022-12-09T09:26:55.457Z,27.70
2022-12-09T09:27:55.412Z,26.60
2022-12-09T09:28:55.203Z,28.80
2022-12-09T09:29:55.079Z,27.90
2022-12-09T09:30:55.147Z,27.60
2022-12-09T09:31:56.179Z,27.00
2022-12-09T09:32:55.237Z,28.10
2022-12-09T09:33:55.321Z,28.40
2022-12-09T09:34:55.296Z,25.70
2022-12-09T09:35:55.422Z,28.80
2022-12-09T09:36:55.157Z,31.00
2022-12-09T09:37:55.477Z,29.90
2022-12-09T09:38:55.264Z,30.60
2022-12-09T09:39:55.503Z,29.30
2022-12-09T09:40:55.390Z,27.90
2022-12-09T09:41:55.451Z,31.10
2022-12-09T09:42:55.061Z,28.40
2022-12-09T09:43:55.339Z,29.00
2022-12-09T09:44:55.000Z,28.00
2022-12-09T09:45:55.269Z,26.80
2022-12-09T09:46:55.607Z,29.70
2022-12-09T09:47:55.263Z,30.00
2022-12-09T09:48:55.000Z,27.60
2022-12-09T09:49:55.375Z,26.50
2022-12-09T09:50:55.841Z,29.80
2022-12-09T09:51:54.995Z,27.00
2022-12-09T09:52:55.307Z,27.40
2022-12-09T09:53:54.875Z,29.50
2022-12-09T09:54:54.878Z,29.50
2022-12-09T09:55:54.856Z,32.20
2022-12-09T09:56:55.231Z,27.10
2022-12-09T09:57:55.026Z,28.70
2022-12-09T09:58:54.984Z,26.90
2022-12-09T09:59:55.058Z,27.10
2022-12-09T10:00:54.884Z,27.10
2022-12-09T10:01:55.222Z,27.30
2022-12-09T10:02:55.735Z,25.50
2022-12-09T10:03:55.092Z,26.30
2022-12-09T10:04:54.864Z,25.50
2022-12-09T10:05:55.163Z,27.10
2022-12-09T10:06:55.266Z,28.30
2022-12-09T10:08:02.088Z,27.70
2022-12-09T10:08:55.151Z,26.70
2022-12-09T10:09:54.781Z,26.50
2022-12-09T10:10:55.051Z,26.80
2022-12-09T10:11:55.008Z,27.80
2022-12-09T10:13:00.703Z,26.00
2022-12-09T10:13:56.373Z,24.60
2022-12-09T10:14:55.197Z,25.20
2022-12-09T10:15:54.871Z,25.10
2022-12-09T10:16:55.256Z,24.30
2022-12-09T10:17:55.197Z,24.00
2022-12-09T10:18:55.203Z,24.80
2022-12-09T10:19:54.680Z,24.90
2022-12-09T10:20:54.774Z,22.80
2022-12-09T10:21:54.723Z,25.50
2022-12-09T10:22:54.977Z,24.20
2022-12-09T10:23:54.722Z,24.60
2022-12-09T10:24:54.703Z,22.10
2022-12-09T10:25:54.851Z,22.90
2022-12-09T10:26:54.548Z,21.90
2022-12-09T10:27:54.615Z,21.40
2022-12-09T10:28:54.893Z,21.30
2022-12-09T10:29:54.916Z,20.70
2022-12-09T10:30:54.626Z,20.10
2022-12-09T10:31:54.602Z,20.60
2022-12-09T10:32:54.591Z,19.90
2022-12-09T10:33:54.646Z,22.10
2022-12-09T10:34:55.068Z,20.70
2022-12-09T10:35:54.890Z,20.90
2022-12-09T10:36:54.558Z,20.60
2022-12-09T10:37:54.382Z,21.80
2022-12-09T10:38:54.681Z,19.50
2022-12-09T10:39:54.366Z,19.10
2022-12-09T10:40:54.449Z,18.30
2022-12-09T10:41:54.640Z,18.40
2022-12-09T10:42:54.338Z,18.20
2022-12-09T10:43:54.349Z,19.90
2022-12-09T10:44:54.590Z,20.10
2022-12-09T10:46:22.906Z,18.40
2022-12-09T10:46:55.305Z,20.10
2022-12-09T10:47:54.668Z,22.70
2022-12-09T10:48:54.869Z,20.80
2022-12-09T10:49:54.429Z,19.80
2022-12-09T10:50:54.621Z,18.40
2022-12-09T10:51:54.235Z,17.10
2022-12-09T10:52:54.659Z,17.90
2022-12-09T10:53:54.366Z,18.00
2022-12-09T10:54:54.471Z,18.00
2022-12-09T10:55:54.147Z,16.30
2022-12-09T10:56:54.531Z,17.40
2022-12-09T10:57:54.415Z,17.60
2022-12-09T10:58:54.181Z,19.40
2022-12-09T10:59:54.195Z,18.40
2022-12-09T11:00:54.173Z,17.00
2022-12-09T11:01:54.638Z,19.60
2022-12-09T11:02:54.602Z,19.20
2022-12-09T11:03:54.819Z,20.50
2022-12-09T11:04:54.683Z,19.80
2022-12-09T11:05:54.569Z,21.20
2022-12-09T11:06:59.051Z,18.80
2022-12-09T11:07:55.318Z,22.00
2022-12-09T11:08:54.565Z,20.00
2022-12-09T11:09:54.437Z,19.80
2022-12-09T11:10:54.556Z,18.70
2022-12-09T11:11:54.320Z,20.70
2022-12-09T11:12:53.994Z,17.50
2022-12-09T11:13:54.093Z,20.90
2022-12-09T11:14:54.111Z,20.40
2022-12-09T11:15:54.414Z,20.30
2022-12-09T11:16:54.599Z,20.80
2022-12-09T11:17:55.916Z,19.30
2022-12-09T11:18:53.975Z,21.30
2022-12-09T11:19:54.269Z,19.20
2022-12-09T11:20:54.421Z,19.70
2022-12-09T11:21:53.971Z,20.40
2022-12-09T11:22:54.900Z,22.60
2022-12-09T11:24:02.222Z,24.10
2022-12-09T11:24:56.505Z,25.10
2022-12-09T11:25:53.990Z,26.00
2022-12-09T11:26:54.303Z,23.40
2022-12-09T11:27:53.881Z,23.60
2022-12-09T11:28:53.852Z,24.10
2022-12-09T11:29:53.951Z,23.80
2022-12-09T11:31:27.130Z,22.30
2022-12-09T11:31:54.936Z,22.70
2022-12-09T11:32:53.945Z,23.50
2022-12-09T11:33:54.290Z,23.50
2022-12-09T11:34:53.832Z,22.80
2022-12-09T11:35:54.007Z,20.90
2022-12-09T11:36:53.693Z,22.00
2022-12-09T11:37:53.685Z,23.90
2022-12-09T11:38:53.689Z,24.60
2022-12-09T11:39:54.354Z,25.10
2022-12-09T11:40:53.648Z,27.40
2022-12-09T11:41:53.641Z,29.70
2022-12-09T11:42:53.731Z,29.40
2022-12-09T11:43:53.623Z,31.00
2022-12-09T11:44:53.632Z,30.10
2022-12-09T11:45:53.602Z,28.30
2022-12-09T11:46:53.632Z,27.00
2022-12-09T11:48:54.580Z,24.40
2022-12-09T11:49:53.613Z,25.40
2022-12-09T11:50:53.563Z,25.30
2022-12-09T11:51:53.544Z,24.80
2022-12-09T11:52:53.522Z,26.10
2022-12-09T11:53:53.517Z,26.40
2022-12-09T11:54:53.524Z,23.80
2022-12-09T11:55:53.499Z,25.60
2022-12-09T11:56:53.479Z,24.90
2022-12-09T11:57:53.467Z,24.50
2022-12-09T11:58:53.472Z,26.00
2022-12-09T11:59:53.458Z,27.30
2022-12-09T12:00:53.457Z,26.80
2022-12-09T12:01:53.517Z,25.90
2022-12-09T12:02:53.469Z,25.40
2022-12-09T12:03:53.405Z,27.30
2022-12-09T12:04:53.396Z,26.30
2022-12-09T12:05:53.383Z,27.80
2022-12-09T12:06:53.372Z,26.00
2022-12-09T12:07:53.444Z,26.30
2022-12-09T12:08:53.494Z,28.40
2022-12-09T12:09:53.338Z,26.20
2022-12-09T12:10:53.337Z,26.40
2022-12-09T12:11:53.336Z,27.70
2022-12-09T12:12:53.351Z,26.20
2022-12-09T12:13:53.298Z,27.60
2022-12-09T12:14:53.282Z,25.10
2022-12-09T12:15:53.282Z,26.20
2022-12-09T12:16:53.329Z,28.80
2022-12-09T12:17:53.260Z,24.50
2022-12-09T12:18:53.259Z,26.70
2022-12-09T12:19:53.244Z,25.20
2022-12-09T12:20:53.226Z,23.90
2022-12-09T12:21:53.208Z,26.10
2022-12-09T12:22:54.991Z,23.90
2022-12-09T12:23:53.191Z,26.00
2022-12-09T12:24:53.184Z,24.70
2022-12-09T12:25:53.168Z,25.90
2022-12-09T12:26:53.176Z,25.40
2022-12-09T12:27:53.143Z,23.40
2022-12-09T12:28:58.104Z,23.90
2022-12-09T12:29:54.126Z,25.30
2022-12-09T12:30:53.111Z,25.60
2022-12-09T12:31:53.136Z,25.40
2022-12-09T12:33:28.671Z,25.30
2022-12-09T12:34:16.154Z,22.90
2022-12-09T12:34:54.072Z,23.40
2022-12-09T12:35:53.061Z,26.30
2022-12-09T12:36:53.059Z,27.20
2022-12-09T12:37:53.055Z,25.60
2022-12-09T12:38:53.032Z,24.00
2022-12-09T12:39:53.016Z,26.80
2022-12-09T12:40:53.008Z,26.90
2022-12-09T12:41:53.000Z,26.80
2022-12-09T12:42:53.017Z,27.90
2022-12-09T12:43:52.981Z,25.40
2022-12-09T12:44:52.959Z,23.90
2022-12-09T12:45:54.991Z,24.60
2022-12-09T12:46:52.940Z,22.70
2022-12-09T12:47:52.983Z,22.90
2022-12-09T12:48:52.937Z,22.00
2022-12-09T12:49:52.902Z,22.40
2022-12-09T12:50:52.894Z,22.60
2022-12-09T12:51:54.523Z,21.60
2022-12-09T12:52:56.907Z,21.20
2022-12-09T12:53:52.880Z,22.90
2022-12-09T12:54:52.883Z,20.60
2022-12-09T12:55:52.839Z,22.60
2022-12-09T12:56:52.829Z,23.20
2022-12-09T12:57:52.821Z,21.60
2022-12-09T12:58:52.824Z,22.40
2022-12-09T12:59:52.801Z,21.90
2022-12-09T13:00:52.841Z,21.90